VAAH Airport Information

Runway Information
Runway 05 Length 11447 ft width 150 ft
Elevation 180 ft Threshold 0 ft Heading 45
Runway 23 Length 11447 ft Width 150 ft
Elevation 189 ft Threshold 0 ft Heading 225
Airport Frequencies
Type ACC Name RADAR Frequency 123.75 MHZ
Type APP Name APPROACH Frequency 119.8 MHZ
Type ATIS Name ATIS Frequency 126.8 MHZ
Type TWR Name TOWER Frequency 119.6 MHZ
Airport Navaids
Type VOR-DME Name Ahmedabad Frequency 113100 KHZ
Type NDB Name Ahmedabad Frequency 215 KHZ
Airport Weather Information & NOTAM
ADDS - METARS form results

(0824 UTC 23 April 2019)
Data provider http://aviationweather.gov/metar/data/
 
METAR text: VAAH 230800Z 08003KT 6000 NSC 42/11 Q1008 NOSIG
Conditions at: VAAH (AHMADABAD , IN) observed 0800 UTC 23 April 2019
Temperature: 42.0°C (108°F)
Dewpoint: 11.0°C (52°F) [RH = 16%]
Pressure (altimeter): 29.76 inches Hg (1008.0 mb)
Winds: from the E (80 degrees) at 3 MPH (3 knots; 1.5 m/s)
Visibility: 4 miles ( 6 km)
Ceiling: at least 12,000 feet AGL
Clouds: sky clear below 12,000 feet AGL
Weather: no significant weather observed at this time

METAR text: VAAH 230730Z 32003KT 5000 FU NSC 41/13 Q1008 NOSIG
Conditions at: VAAH (AHMADABAD , IN) observed 0730 UTC 23 April 2019
Temperature: 41.0°C (106°F)
Dewpoint: 13.0°C (55°F) [RH = 19%]
Pressure (altimeter): 29.76 inches Hg (1008.0 mb)
Winds: from the NW (320 degrees) at 3 MPH (3 knots; 1.5 m/s)
Visibility: 3 miles ( 5 km)
Ceiling: at least 12,000 feet AGL
Clouds: sky clear below 12,000 feet AGL
Weather: FU  (smoke)

Forecast for: VAAH (AHMADABAD , IN)
Text: TAF VAAH 230800Z 2309/2318 VRB02KT 6000 NSC
Forecast period: 0900 to 1300 UTC 23 April 2019
Forecast type: FROM: standard forecast or significant change
Winds: variable direction winds at 2 MPH (2 knots; 1.0 m/s)
Visibility: 4 miles (6 km)
Ceiling: unknown
Clouds: missing
Weather: no significant weather forecast for this period
Text: BECMG 2313/2315 21003KT 4000 FU
Forecast period: 1300 to 1600 UTC 23 April 2019
Forecast type: BECOMING: Conditions expected to become as follows by 1500 UTC 23 April 2019
Winds: from the SSW (210 degrees) at 3 MPH (3 knots; 1.5 m/s)
Visibility: 2.49 miles (4.01 km)
Ceiling: unknown
Clouds: missing
Weather: FU  (smoke)
Text: BECMG 2316/2318 23006KT
Forecast period: 1600 to 1800 UTC 23 April 2019
Forecast type: BECOMING: Conditions expected to become as follows by 1800 UTC 23 April 2019
Winds: from the SW (230 degrees) at 7 MPH (6 knots; 3.1 m/s)
Visibility: 2.49 miles (4.01 km)
Ceiling: unknown
Clouds: missing
Weather: FU  (smoke)